Terminal Aerodrome Forecast
Issued by NWS

Home | Current Version | Previous Version | Text Only | Print | Product List | Glossary On
Versions: 1 2 3 4 5 6 7 8 9 10 11 12 13 14 15
000
FTUS45 KSLC 060531
TAFBCE
TAF
KBCE 060531Z 0606/0706 26007KT P6SM SCT080 BKN150
     FM061800 22015G25KT P6SM SCT080 SCT150
     FM070300 32010KT P6SM SCT080 BKN120=

USA.gov is the U.S. government's official web portal to all federal, state and local government web resources and services.